createdAt,value
2023-03-12T00:01:41.323Z,96797.63
2023-03-12T00:04:42.795Z,96788.06
2023-03-12T00:07:44.455Z,96801.69
2023-03-12T00:10:45.959Z,96795.69
2023-03-12T00:13:55.137Z,96792.00
2023-03-12T00:16:56.643Z,96795.50
2023-03-12T00:19:58.520Z,96790.41
2023-03-12T00:22:59.993Z,96793.47
2023-03-12T00:26:15.432Z,96787.78
2023-03-12T00:29:17.017Z,96791.09
2023-03-12T00:32:18.511Z,96791.91
2023-03-12T00:35:20.018Z,96798.63
2023-03-12T00:38:22.167Z,96810.53
2023-03-12T00:41:25.329Z,96808.63
2023-03-12T00:44:27.162Z,96806.16
2023-03-12T00:47:28.651Z,96803.25
2023-03-12T00:50:30.213Z,96806.56
2023-03-12T00:53:31.778Z,96804.44
2023-03-12T00:56:33.414Z,96798.50
2023-03-12T00:59:34.973Z,96795.22
2023-03-12T01:02:38.119Z,96796.47
2023-03-12T01:05:40.794Z,96799.00
2023-03-12T01:08:42.527Z,96802.28
2023-03-12T01:11:44.050Z,96805.13
2023-03-12T01:14:45.682Z,96802.28
2023-03-12T01:17:47.205Z,96795.25
2023-03-12T01:20:48.825Z,96796.03
2023-03-12T01:23:51.010Z,96791.38
2023-03-12T01:26:52.508Z,96792.44
2023-03-12T01:29:54.178Z,96793.44
2023-03-12T01:32:55.694Z,96795.31
2023-03-12T01:35:57.291Z,96800.28
2023-03-12T01:38:59.662Z,96799.09
2023-03-12T01:42:01.908Z,96791.78
2023-03-12T01:45:05.192Z,96801.06
2023-03-12T01:48:08.014Z,96798.78
2023-03-12T01:51:12.311Z,96816.16
2023-03-12T01:54:19.262Z,96805.63
2023-03-12T01:57:26.768Z,96797.56
2023-03-12T02:00:28.364Z,96803.19
2023-03-12T02:03:32.764Z,96792.41
2023-03-12T02:06:43.803Z,96795.25
2023-03-12T02:09:48.716Z,96790.34
2023-03-12T02:12:51.056Z,96783.38
2023-03-12T02:15:52.547Z,96791.22
2023-03-12T02:18:55.779Z,96794.41
2023-03-12T02:21:59.327Z,96791.03
2023-03-12T02:25:19.220Z,96792.53
2023-03-12T02:28:25.222Z,96798.22
2023-03-12T02:31:33.206Z,96790.66
2023-03-12T02:34:35.927Z,96799.84
2023-03-12T02:37:47.848Z,96787.63
2023-03-12T02:40:51.101Z,96783.59
2023-03-12T02:44:04.438Z,96777.81
2023-03-12T02:47:06.205Z,96785.81
2023-03-12T02:50:08.496Z,96775.31
2023-03-12T02:53:10.063Z,96775.75
2023-03-12T02:56:11.618Z,96766.59
2023-03-12T02:59:14.381Z,96748.31
2023-03-12T03:02:17.926Z,96746.94
2023-03-12T03:05:20.460Z,96726.22
2023-03-12T03:08:22.264Z,96726.22
2023-03-12T03:11:24.785Z,96723.94
2023-03-12T03:14:29.031Z,96723.16
2023-03-12T03:17:30.734Z,96724.81
2023-03-12T03:20:32.625Z,96726.69
2023-03-12T03:23:34.723Z,96731.50
2023-03-12T03:26:36.314Z,96730.00
2023-03-12T03:29:37.993Z,96730.28
2023-03-12T03:32:39.647Z,96745.22
2023-03-12T03:35:41.342Z,96746.69
2023-03-12T03:38:46.997Z,96751.09
2023-03-12T03:41:48.764Z,96753.69
2023-03-12T03:44:53.086Z,96753.31
2023-03-12T03:47:54.760Z,96757.00
2023-03-12T03:51:01.903Z,96751.13
2023-03-12T03:54:05.396Z,96743.00
2023-03-12T03:57:07.150Z,96751.94
2023-03-12T04:00:09.918Z,96745.03
2023-03-12T04:03:15.455Z,96743.41
2023-03-12T04:06:17.054Z,96751.59
2023-03-12T04:09:18.734Z,96745.91
2023-03-12T04:12:21.339Z,96740.25
2023-03-12T04:15:22.903Z,96732.75
2023-03-12T04:18:24.685Z,96741.53
2023-03-12T04:21:26.478Z,96743.38
2023-03-12T04:24:28.006Z,96749.72
2023-03-12T04:27:29.708Z,96734.00
2023-03-12T04:30:31.551Z,96739.53
2023-03-12T04:33:36.621Z,96732.56
2023-03-12T04:36:38.631Z,96728.72
2023-03-12T04:39:41.773Z,96719.53
2023-03-12T04:42:43.396Z,96725.03
2023-03-12T04:45:45.216Z,96725.63
2023-03-12T04:48:46.898Z,96719.09
2023-03-12T04:51:49.632Z,96733.38
2023-03-12T04:54:53.594Z,96735.22
2023-03-12T04:57:55.394Z,96732.75
2023-03-12T05:00:58.662Z,96735.00
2023-03-12T05:04:00.448Z,96733.59
2023-03-12T05:07:02.392Z,96725.19
2023-03-12T05:10:04.673Z,96743.78
2023-03-12T05:13:14.179Z,96734.41
2023-03-12T05:16:16.712Z,96739.50
2023-03-12T05:19:18.554Z,96748.91
2023-03-12T05:22:20.127Z,96764.44
2023-03-12T05:25:21.857Z,96747.03
2023-03-12T05:28:28.494Z,96741.16
2023-03-12T05:31:35.245Z,96723.03
2023-03-12T05:34:38.573Z,96737.00
2023-03-12T05:37:42.796Z,96745.66
2023-03-12T05:40:53.605Z,96731.84
2023-03-12T05:43:57.232Z,96726.56
2023-03-12T05:46:59.223Z,96736.84
2023-03-12T05:50:01.769Z,96718.59
2023-03-12T05:53:04.429Z,96713.44
2023-03-12T05:56:09.303Z,96721.88
2023-03-12T05:59:10.989Z,96721.75
2023-03-12T06:02:14.485Z,96719.50
2023-03-12T06:05:16.118Z,96715.69
2023-03-12T06:08:17.570Z,96741.94
2023-03-12T06:11:19.079Z,96725.81
2023-03-12T06:14:20.632Z,96748.06
2023-03-12T06:17:22.878Z,96731.56
2023-03-12T06:20:24.395Z,96736.88
2023-03-12T06:23:25.871Z,96756.84
2023-03-12T06:26:28.487Z,96737.41
2023-03-12T06:29:29.991Z,96748.03
2023-03-12T06:32:31.604Z,96750.69
2023-03-12T06:35:34.300Z,96751.44
2023-03-12T06:38:36.703Z,96741.88
2023-03-12T06:41:38.218Z,96767.41
2023-03-12T06:44:39.757Z,96768.16
2023-03-12T06:47:41.258Z,96771.56
2023-03-12T06:50:43.364Z,96762.22
2023-03-12T06:53:45.451Z,96783.03
2023-03-12T06:56:47.062Z,96771.53
2023-03-12T06:59:50.571Z,96772.91
2023-03-12T07:02:52.271Z,96792.88
2023-03-12T07:05:56.268Z,96784.69
2023-03-12T07:08:57.850Z,96793.63
2023-03-12T07:11:59.334Z,96798.69
2023-03-12T07:15:00.849Z,96790.38
2023-03-12T07:18:07.472Z,96800.19
2023-03-12T07:21:09.022Z,96797.75
2023-03-12T07:24:10.674Z,96804.84
2023-03-12T07:27:12.189Z,96805.00
2023-03-12T07:30:13.908Z,96824.06
2023-03-12T07:33:17.144Z,96811.78
2023-03-12T07:36:18.815Z,96812.75
2023-03-12T07:39:20.599Z,96815.13
2023-03-12T07:42:22.945Z,96818.25
2023-03-12T07:45:25.105Z,96816.63
2023-03-12T07:48:26.837Z,96815.84
2023-03-12T07:51:28.534Z,96816.63
2023-03-12T07:54:30.709Z,96821.31
2023-03-12T07:57:32.363Z,96827.88
2023-03-12T08:00:33.941Z,96825.03
2023-03-12T08:03:35.742Z,96824.22
2023-03-12T08:06:38.733Z,96835.25
2023-03-12T08:09:40.666Z,96841.81
2023-03-12T08:12:42.152Z,96848.44
2023-03-12T08:15:44.165Z,96853.44
2023-03-12T08:18:45.668Z,96854.88
2023-03-12T08:21:47.186Z,96862.25
2023-03-12T08:24:48.936Z,96854.66
2023-03-12T08:27:50.419Z,96854.88
2023-03-12T08:30:53.967Z,96857.53
2023-03-12T08:33:55.508Z,96856.72
2023-03-12T08:36:57.090Z,96857.13
2023-03-12T08:39:59.576Z,96852.59
2023-03-12T08:43:01.208Z,96848.38
2023-03-12T08:46:03.886Z,96849.50
2023-03-12T08:49:05.444Z,96862.97
2023-03-12T08:52:07.104Z,96861.53
2023-03-12T08:55:10.427Z,96864.56
2023-03-12T08:58:12.065Z,96873.22
2023-03-12T09:01:14.059Z,96873.22
2023-03-12T09:04:16.458Z,96866.69
2023-03-12T09:07:22.247Z,96887.88
2023-03-12T09:10:25.160Z,96880.31
2023-03-12T09:13:40.546Z,96883.38
2023-03-12T09:16:49.203Z,96881.16
2023-03-12T09:19:50.745Z,96892.56
2023-03-12T09:22:52.407Z,96895.94
2023-03-12T09:25:54.845Z,96896.81
2023-03-12T09:28:57.913Z,96901.47
2023-03-12T09:31:59.513Z,96898.97
2023-03-12T09:35:01.054Z,96903.56
2023-03-12T09:38:04.021Z,96909.19
2023-03-12T09:41:06.713Z,96915.34
2023-03-12T09:44:29.416Z,96912.31
2023-03-12T09:47:34.871Z,96913.72
2023-03-12T09:50:43.587Z,96916.84
2023-03-12T09:53:49.348Z,96923.41
2023-03-12T09:56:54.962Z,96930.13
2023-03-12T09:59:57.092Z,96924.75
2023-03-12T10:03:12.675Z,96938.09
2023-03-12T10:06:20.394Z,96945.38
2023-03-12T10:09:46.685Z,96953.16
2023-03-12T10:13:05.237Z,96961.59
2023-03-12T10:16:18.558Z,96967.75
2023-03-12T10:19:38.071Z,96959.03
2023-03-12T10:23:06.837Z,96961.75
2023-03-12T10:26:32.183Z,96965.19
2023-03-12T10:29:38.961Z,96955.91
2023-03-12T10:32:52.058Z,96976.56
2023-03-12T10:35:54.912Z,96975.69
2023-03-12T10:38:56.422Z,96977.09
2023-03-12T10:42:00.378Z,96985.56
2023-03-12T10:45:22.569Z,96985.63
2023-03-12T10:48:25.942Z,96982.66
2023-03-12T10:51:27.425Z,96987.41
2023-03-12T10:54:40.577Z,96987.06
2023-03-12T10:57:42.633Z,96988.44
2023-03-12T11:00:56.735Z,96989.47
2023-03-12T11:04:26.177Z,96992.38
2023-03-12T11:07:34.097Z,96991.19
2023-03-12T11:10:46.819Z,96987.25
2023-03-12T11:14:07.290Z,96991.69
2023-03-12T11:17:24.931Z,96993.34
2023-03-12T11:20:29.162Z,96996.25
2023-03-12T11:23:31.247Z,96986.03
2023-03-12T11:26:51.695Z,97003.91
2023-03-12T11:29:54.295Z,96983.53
2023-03-12T11:32:57.954Z,96990.69
2023-03-12T11:36:04.285Z,96999.72
2023-03-12T11:39:20.662Z,96993.06
2023-03-12T11:42:58.396Z,97006.78
2023-03-12T11:46:17.851Z,96989.22
2023-03-12T11:49:49.773Z,96989.53
2023-03-12T11:53:18.038Z,96996.25
2023-03-12T11:56:46.439Z,96991.38
2023-03-12T12:00:09.118Z,96989.81
2023-03-12T12:03:31.922Z,96988.06
2023-03-12T12:06:40.947Z,96992.63
2023-03-12T12:10:04.632Z,96971.78
2023-03-12T12:13:28.140Z,96959.75
2023-03-12T12:16:29.714Z,96958.78
2023-03-12T12:20:00.223Z,96970.09
2023-03-12T12:23:07.519Z,96954.50
2023-03-12T12:26:13.040Z,96942.56
2023-03-12T12:29:25.825Z,96953.06
2023-03-12T12:32:48.995Z,96966.78
2023-03-12T12:35:51.040Z,96965.94
2023-03-12T12:39:18.493Z,96966.13
2023-03-12T12:42:25.992Z,96961.22
2023-03-12T12:45:30.893Z,96983.03
2023-03-12T12:48:42.131Z,96972.78
2023-03-12T12:51:49.066Z,96960.59
2023-03-12T12:54:54.734Z,96963.28
2023-03-12T12:58:11.649Z,96971.38
2023-03-12T13:01:16.110Z,96976.38
2023-03-12T13:04:26.891Z,96961.72
2023-03-12T13:07:31.156Z,96962.94
2023-03-12T13:10:32.712Z,96969.88
2023-03-12T13:13:34.394Z,96961.22
2023-03-12T13:16:40.033Z,96970.31
2023-03-12T13:19:51.965Z,96989.16
2023-03-12T13:23:14.014Z,96967.38
2023-03-12T13:26:22.745Z,96963.66
2023-03-12T13:29:31.168Z,96954.31
2023-03-12T13:32:35.510Z,96960.19
2023-03-12T13:35:39.583Z,96960.56
2023-03-12T13:38:53.522Z,96960.69
2023-03-12T13:41:56.496Z,96966.06
2023-03-12T13:45:21.445Z,96956.19
2023-03-12T13:48:25.074Z,96957.56
2023-03-12T13:51:27.056Z,96963.16
2023-03-12T13:54:33.203Z,96951.88
2023-03-12T13:57:41.130Z,96945.50
2023-03-12T14:01:01.260Z,96949.25
2023-03-12T14:04:08.918Z,96956.50
2023-03-12T14:07:32.375Z,96939.25
2023-03-12T14:11:00.174Z,96945.78
2023-03-12T14:14:24.125Z,96926.03
2023-03-12T14:17:28.220Z,96942.31
2023-03-12T14:20:30.467Z,96947.97
2023-03-12T14:23:39.587Z,96936.91
2023-03-12T14:26:41.333Z,96931.91
2023-03-12T14:29:55.214Z,96942.69
2023-03-12T14:33:01.326Z,96938.09
2023-03-12T14:36:15.007Z,96934.16
2023-03-12T14:39:28.736Z,96921.47
2023-03-12T14:42:33.831Z,96963.28
2023-03-12T14:45:40.033Z,96945.50
2023-03-12T14:48:41.857Z,96917.78
2023-03-12T14:51:43.694Z,96938.75
2023-03-12T14:54:57.670Z,96946.28
2023-03-12T14:58:18.618Z,96933.22
2023-03-12T15:01:27.022Z,96940.53
2023-03-12T15:04:29.957Z,96934.25
2023-03-12T15:07:36.041Z,96944.31
2023-03-12T15:10:39.165Z,96955.06
2023-03-12T15:13:43.351Z,96961.03
2023-03-12T15:16:45.566Z,96960.03
2023-03-12T15:19:48.955Z,96956.91
2023-03-12T15:22:52.232Z,96964.94
2023-03-12T15:26:15.302Z,96950.75
2023-03-12T15:29:26.510Z,96949.44
2023-03-12T15:32:30.605Z,96954.72
2023-03-12T15:35:32.677Z,96950.75
2023-03-12T15:38:38.209Z,96948.69
2023-03-12T15:41:45.378Z,96939.38
2023-03-12T15:44:57.469Z,96948.13
2023-03-12T15:47:59.059Z,96931.88
2023-03-12T15:51:00.920Z,96954.09
2023-03-12T15:54:14.540Z,96961.16
2023-03-12T15:57:24.190Z,96926.34
2023-03-12T16:00:29.514Z,96940.41
2023-03-12T16:03:31.064Z,96936.47
2023-03-12T16:06:32.733Z,96937.13
2023-03-12T16:09:35.102Z,96931.38
2023-03-12T16:12:38.111Z,96936.81
2023-03-12T16:15:40.023Z,96934.72
2023-03-12T16:18:42.847Z,96951.69
2023-03-12T16:21:45.607Z,96940.47
2023-03-12T16:24:47.104Z,96946.56
2023-03-12T16:27:55.153Z,96934.63
2023-03-12T16:30:56.748Z,96927.44
2023-03-12T16:33:59.011Z,96922.41
2023-03-12T16:37:01.057Z,96932.88
2023-03-12T16:40:04.122Z,96920.53
2023-03-12T16:43:07.593Z,96932.63
2023-03-12T16:46:09.728Z,96923.56
2023-03-12T16:49:14.581Z,96917.53
2023-03-12T16:52:24.420Z,96917.06
2023-03-12T16:55:28.636Z,96915.22
2023-03-12T16:58:30.286Z,96922.53
2023-03-12T17:01:32.117Z,96921.94
2023-03-12T17:04:33.782Z,96929.69
2023-03-12T17:07:35.727Z,96915.63
2023-03-12T17:10:37.235Z,96923.66
2023-03-12T17:13:38.723Z,96911.06
2023-03-12T17:16:40.283Z,96911.34
2023-03-12T17:19:41.766Z,96909.81
2023-03-12T17:22:43.394Z,96921.81
2023-03-12T17:25:45.540Z,96908.50
2023-03-12T17:28:47.225Z,96917.84
2023-03-12T17:31:48.875Z,96935.25
2023-03-12T17:34:59.709Z,96937.41
2023-03-12T17:38:01.200Z,96944.97
2023-03-12T17:41:09.370Z,96949.75
2023-03-12T17:44:15.901Z,96953.00
2023-03-12T17:47:17.419Z,96951.22
2023-03-12T17:50:19.273Z,96948.84
2023-03-12T17:53:20.767Z,96960.09
2023-03-12T17:56:22.254Z,96957.22
2023-03-12T17:59:23.741Z,96969.53
2023-03-12T18:02:25.351Z,96976.28
2023-03-12T18:05:27.093Z,96981.63
2023-03-12T18:08:28.904Z,96976.28
2023-03-12T18:11:30.377Z,96983.47
2023-03-12T18:14:32.208Z,96971.84
2023-03-12T18:17:33.982Z,96989.47
2023-03-12T18:20:39.469Z,96992.16
2023-03-12T18:23:42.564Z,97004.91
2023-03-12T18:26:45.241Z,96995.50
2023-03-12T18:29:46.817Z,96997.38
2023-03-12T18:32:48.354Z,96996.63
2023-03-12T18:35:50.781Z,96994.03
2023-03-12T18:38:53.128Z,96994.66
2023-03-12T18:41:55.706Z,96988.69
2023-03-12T18:44:57.140Z,96987.34
2023-03-12T18:47:58.694Z,96985.09
2023-03-12T18:51:00.258Z,96990.16
2023-03-12T18:54:01.911Z,96991.38
2023-03-12T18:57:03.441Z,96989.31
2023-03-12T19:00:06.273Z,96983.97
2023-03-12T19:03:09.239Z,96993.63
2023-03-12T19:06:14.235Z,96992.16
2023-03-12T19:09:15.728Z,96996.88
2023-03-12T19:12:17.168Z,97010.75
2023-03-12T19:15:19.566Z,96985.09
2023-03-12T19:18:21.054Z,96988.31
2023-03-12T19:21:23.104Z,96990.81
2023-03-12T19:24:24.771Z,96997.06
2023-03-12T19:27:28.114Z,97000.63
2023-03-12T19:30:32.978Z,97006.94
2023-03-12T19:33:34.844Z,96991.34
2023-03-12T19:36:36.397Z,96997.06
2023-03-12T19:39:37.829Z,96985.84
2023-03-12T19:42:39.336Z,96988.47
2023-03-12T19:45:40.862Z,97004.03
2023-03-12T19:48:42.355Z,97019.22
2023-03-12T19:51:43.947Z,97010.22
2023-03-12T19:54:54.709Z,97011.56
2023-03-12T19:58:05.090Z,97025.22
2023-03-12T20:01:06.550Z,97019.22
2023-03-12T20:04:08.874Z,97040.59
2023-03-12T20:07:12.482Z,97027.22
2023-03-12T20:10:14.190Z,97032.72
2023-03-12T20:13:17.735Z,97008.63
2023-03-12T20:16:20.066Z,97020.25
2023-03-12T20:19:21.759Z,97017.69
2023-03-12T20:22:25.597Z,97024.59
2023-03-12T20:25:27.110Z,97024.00
2023-03-12T20:28:28.880Z,97018.06
2023-03-12T20:31:30.409Z,97032.22
2023-03-12T20:34:31.886Z,97037.09
2023-03-12T20:37:33.353Z,97047.72
2023-03-12T20:40:35.312Z,97041.19
2023-03-12T20:43:36.832Z,97055.25
2023-03-12T20:46:38.304Z,97055.25
2023-03-12T20:49:39.846Z,97046.44
2023-03-12T20:52:43.148Z,97043.09
2023-03-12T20:55:44.630Z,97026.97
2023-03-12T20:58:46.111Z,97030.81
2023-03-12T21:01:47.609Z,97038.19
2023-03-12T21:04:49.521Z,97029.50
2023-03-12T21:07:52.347Z,97026.25
2023-03-12T21:10:54.426Z,97025.44
2023-03-12T21:13:55.968Z,97016.84
2023-03-12T21:16:57.827Z,96992.13
2023-03-12T21:19:59.326Z,97000.00
2023-03-12T21:23:01.020Z,97002.91
2023-03-12T21:26:07.845Z,96991.22
2023-03-12T21:29:10.491Z,96986.56
2023-03-12T21:32:11.950Z,96993.91
2023-03-12T21:35:13.391Z,97003.38
2023-03-12T21:38:15.245Z,96998.63
2023-03-12T21:41:18.184Z,96994.59
2023-03-12T21:44:19.625Z,96995.03
2023-03-12T21:47:21.071Z,96986.19
2023-03-12T21:50:22.786Z,96987.59
2023-03-12T21:53:24.480Z,96984.50
2023-03-12T21:56:28.232Z,96963.38
2023-03-12T21:59:30.231Z,96959.00
2023-03-12T22:02:31.969Z,96953.44
2023-03-12T22:05:33.425Z,96955.81
2023-03-12T22:08:35.135Z,96954.19
2023-03-12T22:11:36.919Z,96959.00
2023-03-12T22:14:38.356Z,96956.28
2023-03-12T22:17:39.885Z,96949.59
2023-03-12T22:20:41.318Z,96947.31
2023-03-12T22:23:42.907Z,96932.34
2023-03-12T22:26:45.782Z,96925.91
2023-03-12T22:29:47.301Z,96918.91
2023-03-12T22:32:48.802Z,96927.66
2023-03-12T22:35:50.368Z,96928.44
2023-03-12T22:38:52.366Z,96913.91
2023-03-12T22:41:53.833Z,96927.13
2023-03-12T22:44:55.332Z,96911.50
2023-03-12T22:47:56.785Z,96909.00
2023-03-12T22:50:58.338Z,96921.69
2023-03-12T22:54:00.272Z,96914.72
2023-03-12T22:57:01.866Z,96907.66
2023-03-12T23:00:24.251Z,96899.34
2023-03-12T23:03:26.566Z,96903.44
2023-03-12T23:06:29.993Z,96894.13
2023-03-12T23:09:31.634Z,96896.78
2023-03-12T23:12:33.113Z,96884.88
2023-03-12T23:15:40.746Z,96881.13
2023-03-12T23:18:44.461Z,96877.91
2023-03-12T23:21:45.938Z,96875.19
2023-03-12T23:24:47.375Z,96861.38
2023-03-12T23:27:48.905Z,96863.00
2023-03-12T23:31:01.645Z,96860.94
2023-03-12T23:34:03.365Z,96855.59
2023-03-12T23:37:05.115Z,96853.22
2023-03-12T23:40:07.086Z,96844.41
2023-03-12T23:43:08.573Z,96849.47
2023-03-12T23:46:11.686Z,96853.53
2023-03-12T23:49:13.215Z,96851.75
2023-03-12T23:52:14.736Z,96848.53
2023-03-12T23:55:17.373Z,96837.88
2023-03-12T23:58:18.845Z,96845.00
